Aviation Digital Data Service (ADDS)

Output produced by METARs form (2247 UTC 25 October 2014)
found at http://aviationweather.gov/adds/metars/
 
KINT 251731Z 2518/2618 30005KT P6SM SKC 
     TEMPO 2612/2615 30012G18KT 
     FM261500 30013G20KT P6SM SKC